createdAt,value
2023-03-23T15:58:12.534Z,99118.00
2023-03-23T16:00:41.351Z,99128.00
2023-03-23T16:03:18.082Z,99110.00
2023-03-23T16:05:45.559Z,99128.00
2023-03-23T16:08:12.724Z,99126.00
2023-03-23T16:10:39.648Z,99128.00
2023-03-23T16:13:07.175Z,99132.00
2023-03-23T16:15:34.275Z,99142.00
2023-03-23T16:18:01.205Z,99132.00
2023-03-23T16:20:30.787Z,99140.00
2023-03-23T16:22:57.716Z,99150.00
2023-03-23T16:25:24.755Z,99150.00
2023-03-23T16:27:52.791Z,99152.00
2023-03-23T16:30:21.597Z,99147.00
2023-03-23T16:32:48.770Z,99132.00
2023-03-23T16:35:17.542Z,99154.00
2023-03-23T16:38:07.971Z,99149.00
2023-03-23T16:40:37.365Z,99147.00
2023-03-23T16:43:08.446Z,99151.00
2023-03-23T16:45:40.048Z,99152.00
2023-03-23T16:48:10.358Z,99126.00
2023-03-23T16:50:39.311Z,99148.00
2023-03-23T16:53:08.198Z,99153.00
2023-03-23T16:55:37.642Z,99160.00
2023-03-23T16:58:16.405Z,99136.00
2023-03-23T17:00:49.013Z,99168.00
2023-03-23T17:03:18.472Z,99165.00
2023-03-23T17:05:48.819Z,99173.00
2023-03-23T17:08:16.703Z,99169.00
2023-03-23T17:10:44.560Z,99179.00
2023-03-23T17:13:11.797Z,99179.00
2023-03-23T17:15:45.246Z,99183.00
2023-03-23T17:18:14.008Z,99185.00
2023-03-23T17:20:42.242Z,99183.00
2023-03-23T17:23:09.157Z,99194.00
2023-03-23T17:25:36.011Z,99186.00
2023-03-23T17:28:05.776Z,99167.00
2023-03-23T17:30:35.512Z,99174.00
2023-03-23T17:33:02.710Z,99185.00
2023-03-23T17:35:29.804Z,99189.00
2023-03-23T17:37:56.667Z,99183.00
2023-03-23T17:40:23.954Z,99194.00
2023-03-23T17:42:51.152Z,99192.00
2023-03-23T17:45:18.224Z,99195.00
2023-03-23T17:47:45.312Z,99195.00
2023-03-23T17:50:13.357Z,99205.00
2023-03-23T17:52:41.705Z,99198.00
2023-03-23T17:55:09.428Z,99198.00
2023-03-23T17:57:36.826Z,99198.00
2023-03-23T18:00:08.309Z,99210.00
2023-03-23T18:02:37.083Z,99209.00
2023-03-23T18:05:06.271Z,99214.00
2023-03-23T18:07:33.123Z,99220.00
2023-03-23T18:10:01.005Z,99222.00
2023-03-23T18:12:27.984Z,99218.00
2023-03-23T18:14:58.682Z,99228.00
2023-03-23T18:17:26.585Z,99193.00
2023-03-23T18:19:54.411Z,99219.00
2023-03-23T18:22:21.937Z,99207.00
2023-03-23T18:24:49.017Z,99224.00
2023-03-23T18:27:16.347Z,99231.00
2023-03-23T18:29:43.738Z,99235.00
2023-03-23T18:32:10.715Z,99237.00
2023-03-23T18:34:41.519Z,99247.00
2023-03-23T18:37:08.544Z,99245.00
2023-03-23T18:39:35.446Z,99251.00
2023-03-23T18:42:02.294Z,99265.00
2023-03-23T18:44:29.509Z,99262.00
2023-03-23T18:46:56.691Z,99270.00
2023-03-23T18:49:23.674Z,99267.00
2023-03-23T18:51:50.787Z,99266.00
2023-03-23T18:54:17.725Z,99264.00
2023-03-23T18:56:44.833Z,99261.00
2023-03-23T18:59:12.142Z,99267.00
2023-03-23T19:01:39.268Z,99275.00
2023-03-23T19:04:06.585Z,99270.00
2023-03-23T19:06:34.868Z,99274.00
2023-03-23T19:09:02.267Z,99270.00
2023-03-23T19:11:29.400Z,99283.00
2023-03-23T19:14:02.485Z,99286.00
2023-03-23T19:16:32.290Z,99282.00
2023-03-23T19:19:02.108Z,99296.00
2023-03-23T19:21:31.976Z,99290.00
2023-03-23T19:24:01.272Z,99289.00
2023-03-23T19:26:44.280Z,99286.00
2023-03-23T19:29:26.759Z,99293.00
2023-03-23T19:31:56.664Z,99306.00
2023-03-23T19:34:26.670Z,99305.00
2023-03-23T19:37:03.147Z,99310.00
2023-03-23T19:39:34.188Z,99289.00
2023-03-23T19:42:01.274Z,99283.00
2023-03-23T19:44:28.889Z,99288.00
2023-03-23T19:46:56.669Z,99288.00
2023-03-23T19:49:24.669Z,99290.00
2023-03-23T19:51:52.605Z,99281.00
2023-03-23T19:54:36.594Z,99272.00
2023-03-23T19:57:07.044Z,99283.00
2023-03-23T19:59:34.189Z,99283.00
2023-03-23T20:02:01.396Z,99281.00
2023-03-23T20:04:29.941Z,99282.00
2023-03-23T20:06:57.206Z,99294.00
2023-03-23T20:09:25.359Z,99309.00
2023-03-23T20:11:53.539Z,99313.00
2023-03-23T20:14:20.930Z,99317.00
2023-03-23T20:16:48.114Z,99321.00
2023-03-23T20:19:15.245Z,99326.00
2023-03-23T20:21:42.219Z,99330.00
2023-03-23T20:24:10.365Z,99355.00
2023-03-23T20:26:43.162Z,99345.00
2023-03-23T20:29:10.911Z,99348.00
2023-03-23T20:31:41.073Z,99346.00
2023-03-23T20:34:17.180Z,99340.00
2023-03-23T20:36:45.995Z,99343.00
2023-03-23T20:39:21.848Z,99331.00
2023-03-23T20:41:51.018Z,99286.00
2023-03-23T20:44:19.849Z,99295.00
2023-03-23T20:46:51.453Z,99299.00
2023-03-23T20:49:20.723Z,99308.00
2023-03-23T20:51:47.994Z,99300.00
2023-03-23T20:54:18.651Z,99309.00
2023-03-23T20:56:46.973Z,99289.00
2023-03-23T20:59:15.487Z,99278.00
2023-03-23T21:01:43.148Z,99244.00
2023-03-23T21:04:15.427Z,99274.00
2023-03-23T21:06:44.854Z,99289.00
2023-03-23T21:09:13.577Z,99292.00
2023-03-23T21:11:40.975Z,99269.00
2023-03-23T21:14:08.895Z,99283.00
2023-03-23T21:16:36.208Z,99280.00
2023-03-23T21:19:05.415Z,99285.00
2023-03-23T21:21:34.200Z,99270.00
2023-03-23T21:24:01.788Z,99268.00
2023-03-23T21:26:30.365Z,99248.00
2023-03-23T21:29:00.056Z,99289.00
2023-03-23T21:31:30.615Z,99289.00
2023-03-23T21:34:00.963Z,99282.00
2023-03-23T21:36:28.790Z,99278.00
2023-03-23T21:38:57.006Z,99283.00
2023-03-23T21:41:24.668Z,99270.00
2023-03-23T21:43:51.936Z,99277.00
2023-03-23T21:46:19.309Z,99282.00
2023-03-23T21:48:51.859Z,99285.00
2023-03-23T21:51:23.796Z,99283.00
2023-03-23T21:53:54.249Z,99287.00
2023-03-23T21:56:25.155Z,99289.00
2023-03-23T21:58:52.459Z,99288.00
2023-03-23T22:01:20.402Z,99286.00
2023-03-23T22:03:48.317Z,99289.00
2023-03-23T22:06:21.018Z,99289.00
2023-03-23T22:08:48.322Z,99294.00
2023-03-23T22:11:24.740Z,99295.00
2023-03-23T22:13:54.708Z,99295.00
2023-03-23T22:16:22.735Z,99300.00
2023-03-23T22:18:52.284Z,99297.00
2023-03-23T22:21:22.113Z,99295.00
2023-03-23T22:23:49.700Z,99291.00
2023-03-23T22:26:17.202Z,99289.00
2023-03-23T22:28:46.966Z,99304.00
2023-03-23T22:31:18.821Z,99300.00
2023-03-23T22:33:47.863Z,99299.00
2023-03-23T22:36:16.236Z,99290.00
2023-03-23T22:38:46.651Z,99296.00
2023-03-23T22:41:22.026Z,99289.00
2023-03-23T22:43:49.437Z,99284.00
2023-03-23T22:46:17.325Z,99271.00
2023-03-23T22:48:46.167Z,99276.00
2023-03-23T22:51:16.646Z,99285.00
2023-03-23T22:53:44.618Z,99284.00
2023-03-23T22:56:12.024Z,99284.00
2023-03-23T22:58:39.355Z,99297.00
2023-03-23T23:01:19.423Z,99285.00
2023-03-23T23:03:47.446Z,99288.00
2023-03-23T23:06:17.009Z,99291.00
2023-03-23T23:08:45.929Z,99283.00
2023-03-23T23:11:16.590Z,99295.00
2023-03-23T23:13:44.358Z,99293.00
2023-03-23T23:16:14.027Z,99293.00
2023-03-23T23:18:41.272Z,99294.00
2023-03-23T23:21:12.840Z,99290.00
2023-03-23T23:23:40.530Z,99269.00
2023-03-23T23:26:08.164Z,99305.00
2023-03-23T23:28:36.260Z,99294.00
2023-03-23T23:31:06.170Z,99289.00
2023-03-23T23:33:33.199Z,99290.00
2023-03-23T23:36:00.133Z,99293.00
2023-03-23T23:38:27.222Z,99288.00
2023-03-23T23:40:54.169Z,99289.00
2023-03-23T23:43:21.223Z,99286.00
2023-03-23T23:45:48.193Z,99293.00
2023-03-23T23:48:15.591Z,99293.00
2023-03-23T23:50:42.497Z,99299.00
2023-03-23T23:53:10.820Z,99295.00
2023-03-23T23:55:40.388Z,99293.00
2023-03-23T23:58:07.458Z,99289.00
